Time;durP1;ratioP1;P1;durP2;ratioP2;P2;SDS_P1;SDS_P2;PMS_P1;PMS_P2;Temp;Humidity;BMP_temperature;BMP_pressure;BME280_temperature;BME280_humidity;BME280_pressure;Samples;Min_cycle;Max_cycle;Signal;HPM_P1;HPM_P2
2022/09/30 00:01:25;;;;;;;8.47;3.80;;;;;;;5.99;99.58;100312.47;5054021;28;20465;-71
2022/09/30 00:03:52;;;;;;;12.97;4.07;;;;;;;5.97;100.00;100301.19;5053722;28;20815;-71
2022/09/30 00:06:19;;;;;;;8.63;3.60;;;;;;;6.02;100.00;100306.53;5053792;28;20939;-72
2022/09/30 00:08:46;;;;;;;10.23;3.50;;;;;;;6.10;100.00;100308.66;5053954;28;20489;-72
2022/09/30 00:11:16;;;;;;;11.33;4.70;;;;;;;6.02;100.00;100303.84;5053936;28;20446;-72
2022/09/30 00:13:46;;;;;;;7.63;3.70;;;;;;;6.10;100.00;100307.84;5053835;28;20512;-72
2022/09/30 00:16:14;;;;;;;10.10;3.87;;;;;;;6.16;100.00;100307.56;5053527;28;21026;-72
2022/09/30 00:18:41;;;;;;;11.20;4.90;;;;;;;6.23;100.00;100310.72;5053630;28;20569;-73
2022/09/30 00:21:09;;;;;;;8.90;4.00;;;;;;;6.26;99.11;100315.53;5053447;28;20438;-72
2022/09/30 00:23:36;;;;;;;11.10;4.60;;;;;;;6.32;98.74;100319.00;5053673;28;20511;-71
2022/09/30 00:26:06;;;;;;;9.70;4.53;;;;;;;6.21;98.93;100315.59;5053410;28;20981;-72
2022/09/30 00:28:34;;;;;;;12.33;4.43;;;;;;;6.14;99.66;100309.69;5052657;28;20532;-71
2022/09/30 00:31:06;;;;;;;8.87;3.90;;;;;;;6.15;99.36;100315.88;5053595;28;20434;-72
2022/09/30 00:33:33;;;;;;;9.40;4.17;;;;;;;6.17;99.46;100319.09;5053589;28;20529;-71
2022/09/30 00:36:00;;;;;;;10.50;4.07;;;;;;;6.11;98.98;100318.34;5053241;28;20867;-71
2022/09/30 00:38:26;;;;;;;8.97;4.30;;;;;;;6.04;98.39;100310.56;5053334;28;20466;-71
2022/09/30 00:40:55;;;;;;;7.83;3.67;;;;;;;6.04;97.88;100315.13;5053764;28;20520;-71
2022/09/30 00:43:41;;;;;;;8.10;3.50;;;;;;;6.11;95.81;100310.28;5053206;28;20943;-71
2022/09/30 00:46:16;;;;;;;7.47;3.80;;;;;;;6.03;95.24;100310.84;5053419;28;20430;-71
2022/09/30 00:48:49;;;;;;;7.17;3.50;;;;;;;5.81;96.26;100314.69;5053306;28;20458;-71
2022/09/30 00:51:16;;;;;;;8.60;4.40;;;;;;;5.71;96.61;100322.81;5053442;28;20431;-71
2022/09/30 00:53:50;;;;;;;10.00;4.37;;;;;;;5.62;97.22;100316.34;5052771;28;20442;-72
2022/09/30 00:56:21;;;;;;;9.23;3.93;;;;;;;5.50;97.22;100318.56;5053073;28;20430;-71
2022/09/30 00:58:53;;;;;;;7.73;4.03;;;;;;;5.57;97.76;100325.25;5053103;28;20458;-73
2022/09/30 01:01:22;;;;;;;7.73;3.27;;;;;;;5.70;97.45;100323.84;5053355;28;20422;-72
2022/09/30 01:03:54;;;;;;;9.13;4.23;;;;;;;5.76;98.00;100325.47;5053182;28;20446;-71
2022/09/30 01:06:23;;;;;;;6.63;3.13;;;;;;;5.80;97.99;100326.53;5053280;28;20426;-71
2022/09/30 01:08:50;;;;;;;7.90;3.70;;;;;;;5.89;97.73;100329.44;5053054;28;20467;-73
2022/09/30 01:11:17;;;;;;;11.23;4.20;;;;;;;5.84;97.55;100324.06;5052827;28;20939;-72
2022/09/30 01:13:48;;;;;;;13.87;4.17;;;;;;;5.73;98.71;100325.19;5053178;28;20480;-74
2022/09/30 01:16:32;;;;;;;7.30;4.20;;;;;;;5.77;98.76;100321.69;5053073;28;20422;-72
2022/09/30 01:19:16;;;;;;;8.80;3.97;;;;;;;5.73;100.00;100327.88;5053230;28;20474;-71
2022/09/30 01:22:13;;;;;;;10.10;4.37;;;;;;;5.66;99.87;100338.91;5053125;28;20430;-72
2022/09/30 01:24:53;;;;;;;7.83;4.10;;;;;;;5.64;100.00;100338.41;5052987;28;20442;-71
2022/09/30 01:27:33;;;;;;;7.70;3.93;;;;;;;5.75;100.00;100331.91;5052785;28;20504;-71
2022/09/30 01:30:18;;;;;;;9.60;4.00;;;;;;;5.74;99.95;100334.88;5053066;28;20461;-72
2022/09/30 01:33:13;;;;;;;10.13;4.20;;;;;;;5.64;99.84;100332.22;5052617;28;20787;-72
2022/09/30 01:35:54;;;;;;;7.10;3.70;;;;;;;5.53;99.02;100336.81;5052952;28;20767;-71
2022/09/30 01:38:28;;;;;;;9.00;4.17;;;;;;;5.34;97.43;100333.91;5052834;28;20470;-71
2022/09/30 01:41:02;;;;;;;10.17;4.73;;;;;;;5.34;98.14;100333.91;5056718;28;20547;-71
2022/09/30 01:43:39;;;;;;;10.37;3.67;;;;;;;5.46;96.87;100341.69;5056631;28;20450;-72
2022/09/30 01:46:18;;;;;;;9.43;4.03;;;;;;;5.50;94.87;100332.81;5056528;28;20434;-71
2022/09/30 01:48:53;;;;;;;8.17;4.40;;;;;;;5.42;96.08;100340.63;5056621;28;20466;-71
2022/09/30 01:51:30;;;;;;;10.53;4.70;;;;;;;5.27;97.53;100333.41;5056322;28;20899;-71
2022/09/30 01:54:01;;;;;;;10.37;4.20;;;;;;;5.21;99.16;100337.16;5056590;28;20521;-71
2022/09/30 01:56:35;;;;;;;8.63;4.40;;;;;;;5.23;99.34;100335.03;5056147;28;20837;-71
2022/09/30 01:59:06;;;;;;;11.57;4.50;;;;;;;5.30;98.92;100336.34;5056443;28;20427;-71
2022/09/30 02:01:39;;;;;;;10.27;4.33;;;;;;;5.40;98.81;100326.63;5056461;28;20795;-71
2022/09/30 02:04:12;;;;;;;8.60;4.13;;;;;;;5.51;98.47;100336.28;5056445;28;20438;-71
2022/09/30 02:06:42;;;;;;;7.93;3.63;;;;;;;5.41;99.30;100336.31;5056263;28;20484;-71
2022/09/30 02:09:13;;;;;;;11.67;5.20;;;;;;;5.37;99.31;100330.69;5056003;28;20434;-71
2022/09/30 02:11:41;;;;;;;8.50;3.90;;;;;;;5.38;99.48;100334.19;5056390;28;20430;-71
2022/09/30 02:14:14;;;;;;;15.43;4.90;;;;;;;5.35;100.00;100345.44;5056107;28;20453;-69
2022/09/30 02:16:46;;;;;;;12.50;4.67;;;;;;;5.25;100.00;100351.66;5056048;28;20442;-70
2022/09/30 02:19:19;;;;;;;10.83;4.77;;;;;;;5.34;100.00;100339.28;5055703;28;20922;-70
2022/09/30 02:21:51;;;;;;;9.63;4.70;;;;;;;5.41;100.00;100349.75;5056211;28;20434;-70
2022/09/30 02:24:21;;;;;;;10.03;4.20;;;;;;;5.47;99.81;100340.59;5055981;28;20431;-70
2022/09/30 02:26:49;;;;;;;7.70;3.40;;;;;;;5.51;99.47;100338.97;5055704;28;20446;-71
2022/09/30 02:29:21;;;;;;;8.30;4.40;;;;;;;5.30;97.78;100347.06;5057330;28;20434;-70
2022/09/30 02:31:52;;;;;;;9.87;4.90;;;;;;;5.12;97.32;100342.28;5055796;28;20427;-70
2022/09/30 02:34:23;;;;;;;8.10;4.17;;;;;;;4.99;97.07;100348.19;5055772;28;20441;-71
2022/09/30 02:36:54;;;;;;;8.20;4.33;;;;;;;5.12;97.05;100350.31;5055798;28;20422;-71
2022/09/30 02:39:25;;;;;;;9.30;4.40;;;;;;;5.10;95.73;100349.00;5055593;28;20430;-70
2022/09/30 02:41:55;;;;;;;10.40;4.43;;;;;;;5.04;96.22;100353.56;5055690;28;20427;-70
2022/09/30 02:44:21;;;;;;;10.13;3.87;;;;;;;5.17;95.67;100354.88;5055978;28;20846;-70
2022/09/30 02:46:55;;;;;;;8.87;4.50;;;;;;;5.09;96.80;100350.88;5055194;28;20458;-71
2022/09/30 02:49:31;;;;;;;9.47;4.60;;;;;;;5.08;97.38;100357.31;5055576;28;20484;-71
2022/09/30 02:52:11;;;;;;;12.17;5.00;;;;;;;5.09;98.17;100358.09;5054804;28;20845;-71
2022/09/30 02:54:48;;;;;;;8.13;3.93;;;;;;;5.10;98.46;100359.75;5055314;28;20437;-70
2022/09/30 02:57:19;;;;;;;11.27;5.03;;;;;;;5.16;98.69;100361.34;5055361;28;20461;-70
2022/09/30 02:59:47;;;;;;;9.47;4.13;;;;;;;5.24;97.82;100356.22;5055321;28;20476;-71
2022/09/30 03:02:14;;;;;;;10.40;4.27;;;;;;;5.27;98.09;100355.69;5054960;28;20446;-71
2022/09/30 03:04:45;;;;;;;8.70;4.00;;;;;;;5.31;98.00;100361.31;5054970;28;20935;-70
2022/09/30 03:07:13;;;;;;;7.53;3.73;;;;;;;5.36;98.13;100365.84;5055306;28;20504;-70
2022/09/30 03:09:39;;;;;;;9.50;4.20;;;;;;;5.35;98.18;100361.56;5055205;28;20461;-71
2022/09/30 03:12:16;;;;;;;12.30;4.70;;;;;;;5.20;98.45;100373.16;5055072;28;20516;-71
2022/09/30 03:15:02;;;;;;;8.17;3.67;;;;;;;5.19;98.42;100369.66;5054829;28;20926;-72
2022/09/30 03:17:59;;;;;;;7.60;4.10;;;;;;;5.26;97.25;100359.44;5054936;28;20515;-72
2022/09/30 03:20:45;;;;;;;11.47;4.53;;;;;;;5.23;97.17;100368.03;5054844;28;20477;-71
2022/09/30 03:23:28;;;;;;;9.30;4.77;;;;;;;5.07;97.67;100367.25;5054782;28;20431;-71
2022/09/30 03:26:04;;;;;;;9.57;4.90;;;;;;;4.97;96.68;100375.31;5054899;28;20521;-71
2022/09/30 03:28:35;;;;;;;9.10;4.10;;;;;;;4.86;97.21;100370.19;5054366;28;20470;-70
2022/09/30 03:31:10;;;;;;;7.33;3.97;;;;;;;4.73;96.66;100376.91;5053785;28;20470;-72
2022/09/30 03:33:45;;;;;;;10.93;4.57;;;;;;;4.65;97.10;100375.56;5054313;28;20429;-71
2022/09/30 03:36:25;;;;;;;9.63;4.37;;;;;;;4.74;97.91;100376.66;5054630;28;20426;-71
2022/09/30 03:39:00;;;;;;;9.13;3.97;;;;;;;4.85;96.44;100382.81;5054188;28;20974;-71
2022/09/30 03:41:31;;;;;;;10.03;4.77;;;;;;;4.76;96.32;100381.75;5054513;28;20423;-72
2022/09/30 03:44:03;;;;;;;9.17;4.10;;;;;;;4.67;98.04;100394.06;5054567;28;20418;-71
2022/09/30 03:46:34;;;;;;;11.07;4.10;;;;;;;4.86;97.17;100403.19;5054451;28;20430;-71
2022/09/30 03:49:05;;;;;;;9.30;4.47;;;;;;;4.95;97.14;100396.22;5054497;28;20484;-71
2022/09/30 03:51:37;;;;;;;9.57;5.00;;;;;;;4.99;97.29;100400.00;5054276;28;20462;-70
2022/09/30 03:54:08;;;;;;;20.63;4.37;;;;;;;4.91;98.14;100397.03;5054497;28;20430;-71
2022/09/30 03:56:36;;;;;;;8.03;3.70;;;;;;;4.94;98.39;100399.19;5054141;28;20805;-71
2022/09/30 03:59:03;;;;;;;8.60;4.37;;;;;;;4.83;99.38;100403.75;5054212;28;20474;-71
2022/09/30 04:01:30;;;;;;;8.20;3.70;;;;;;;4.74;100.00;100400.78;5054083;28;20442;-71
2022/09/30 04:03:56;;;;;;;10.50;4.90;;;;;;;4.75;99.90;100406.97;5053148;28;20442;-71
2022/09/30 04:06:24;;;;;;;12.90;4.90;;;;;;;4.81;100.00;100404.00;5054075;28;20446;-71
2022/09/30 04:08:52;;;;;;;9.60;4.20;;;;;;;4.90;99.50;100408.84;5053732;28;21006;-71
2022/09/30 04:11:20;;;;;;;10.03;4.40;;;;;;;4.88;98.97;100406.44;5053921;28;20517;-71
2022/09/30 04:13:46;;;;;;;9.63;4.97;;;;;;;4.87;98.74;100409.38;5054028;28;20442;-71
2022/09/30 04:16:13;;;;;;;13.00;3.87;;;;;;;4.71;99.22;100401.31;5053575;28;20450;-71
2022/09/30 04:18:39;;;;;;;11.30;4.10;;;;;;;4.93;98.26;100413.69;5053761;28;20462;-72
2022/09/30 04:21:07;;;;;;;18.13;4.50;;;;;;;4.92;95.69;100404.84;5053994;28;20852;-71
2022/09/30 04:23:35;;;;;;;8.40;3.90;;;;;;;4.87;95.06;100417.41;5053731;28;20450;-72
2022/09/30 04:26:04;;;;;;;12.63;4.80;;;;;;;4.76;95.53;100414.75;5053730;28;20469;-71
2022/09/30 04:28:30;;;;;;;7.93;4.33;;;;;;;4.63;97.57;100417.94;5053239;28;20482;-71
2022/09/30 04:30:59;;;;;;;7.47;3.03;;;;;;;4.62;96.73;100423.56;5053622;28;20494;-71
2022/09/30 04:33:25;;;;;;;12.50;5.37;;;;;;;4.47;97.90;100421.66;5053595;28;20541;-71
2022/09/30 04:35:53;;;;;;;7.47;3.80;;;;;;;4.52;97.58;100424.38;5053477;28;20442;-71
2022/09/30 04:38:19;;;;;;;11.97;4.40;;;;;;;4.41;99.19;100439.59;5053309;28;20466;-71
2022/09/30 04:40:48;;;;;;;9.60;4.00;;;;;;;4.41;100.00;100444.97;5053460;28;20441;-71
2022/09/30 04:43:17;;;;;;;7.30;3.50;;;;;;;4.45;100.00;100445.25;5053420;28;20453;-71
2022/09/30 04:45:44;;;;;;;10.60;4.90;;;;;;;4.51;100.00;100446.88;5053050;28;20985;-71
2022/09/30 04:48:11;;;;;;;7.83;3.80;;;;;;;4.58;100.00;100450.13;5052974;28;20470;-71
2022/09/30 04:50:38;;;;;;;11.03;3.80;;;;;;;4.64;100.00;100451.72;5053140;28;20605;-71
2022/09/30 04:53:04;;;;;;;7.67;3.90;;;;;;;4.66;100.00;100444.25;5052981;28;20938;-71
2022/09/30 04:55:30;;;;;;;9.60;4.30;;;;;;;4.74;100.00;100465.19;5052966;28;20445;-72
2022/09/30 04:57:57;;;;;;;9.00;3.93;;;;;;;4.79;99.73;100467.88;5053300;28;20886;-70
2022/09/30 05:00:25;;;;;;;8.73;3.90;;;;;;;4.80;99.18;100469.47;5053152;28;20450;-72
2022/09/30 05:02:52;;;;;;;11.50;5.43;;;;;;;4.70;99.95;100471.34;5053124;28;20442;-71
2022/09/30 05:05:19;;;;;;;8.23;3.97;;;;;;;4.61;100.00;100463.00;5052693;28;20938;-70
2022/09/30 05:07:45;;;;;;;7.60;3.90;;;;;;;4.70;100.00;100469.47;5052657;28;20850;-70
2022/09/30 05:10:12;;;;;;;10.47;4.17;;;;;;;4.65;100.00;100474.81;5053066;28;20480;-70
2022/09/30 05:12:39;;;;;;;7.90;4.13;;;;;;;4.74;100.00;100473.25;5052893;28;20449;-70
2022/09/30 05:15:07;;;;;;;8.40;4.00;;;;;;;4.84;99.07;100480.50;5055851;28;20450;-70
2022/09/30 05:17:35;;;;;;;8.03;3.80;;;;;;;4.91;98.32;100480.22;5056721;28;20469;-70
2022/09/30 05:20:02;;;;;;;10.30;4.70;;;;;;;4.69;98.14;100473.22;5057052;28;20442;-70
2022/09/30 05:22:28;;;;;;;9.80;4.87;;;;;;;4.55;98.02;100480.13;5056969;28;20449;-70
2022/09/30 05:24:55;;;;;;;7.37;3.53;;;;;;;4.59;98.44;100483.91;5057070;28;20437;-70
2022/09/30 05:27:22;;;;;;;11.00;4.20;;;;;;;4.55;99.06;100488.97;5056490;28;20535;-70
2022/09/30 05:29:49;;;;;;;7.67;3.67;;;;;;;4.45;97.92;100494.31;5056877;28;20450;-71
2022/09/30 05:32:16;;;;;;;8.30;3.63;;;;;;;4.44;97.34;100503.44;5056873;28;20477;-69
2022/09/30 05:34:44;;;;;;;10.63;4.10;;;;;;;4.36;96.89;100500.47;5056912;28;20446;-70
2022/09/30 05:37:10;;;;;;;9.93;4.37;;;;;;;4.35;99.57;100509.56;5056764;28;20458;-70
2022/09/30 05:39:36;;;;;;;9.40;4.47;;;;;;;4.50;99.11;100501.59;5056688;28;20449;-71
2022/09/30 05:42:03;;;;;;;9.90;5.50;;;;;;;4.62;98.49;100496.81;5056447;28;20814;-71
2022/09/30 05:44:30;;;;;;;9.30;5.00;;;;;;;4.75;98.48;100503.56;5056696;28;20508;-71
2022/09/30 05:46:56;;;;;;;9.97;5.07;;;;;;;4.80;98.70;100509.72;5056563;28;20461;-71
2022/09/30 05:49:23;;;;;;;8.50;4.47;;;;;;;4.77;99.33;100507.56;5056575;28;20438;-71
2022/09/30 05:51:50;;;;;;;9.03;4.43;;;;;;;4.71;99.92;100502.47;5056155;28;20889;-71
2022/09/30 05:54:17;;;;;;;8.20;4.67;;;;;;;4.61;100.00;100508.59;5056510;28;20437;-71
2022/09/30 05:56:43;;;;;;;7.20;4.17;;;;;;;4.66;100.00;100505.13;5056361;28;20454;-71
2022/09/30 05:59:10;;;;;;;12.80;5.37;;;;;;;4.72;100.00;100509.44;5056364;28;20468;-71
2022/09/30 06:01:36;;;;;;;9.90;5.30;;;;;;;4.81;99.98;100519.38;5056684;28;20445;-71
2022/09/30 06:04:03;;;;;;;8.00;4.50;;;;;;;4.79;99.83;100521.53;5056367;28;20486;-71
2022/09/30 06:06:30;;;;;;;11.37;5.53;;;;;;;4.80;100.00;100517.78;5056001;28;20434;-71
2022/09/30 06:08:58;;;;;;;10.40;5.07;;;;;;;4.81;100.00;100521.25;5056436;28;20500;-71
2022/09/30 06:11:25;;;;;;;9.10;4.90;;;;;;;4.78;100.00;100519.94;5056306;28;20482;-71
2022/09/30 06:13:51;;;;;;;11.97;4.90;;;;;;;4.96;100.00;100523.19;5056188;28;20442;-71
2022/09/30 06:16:19;;;;;;;8.17;4.27;;;;;;;5.23;100.00;100520.28;5055853;28;20981;-71
2022/09/30 06:18:45;;;;;;;11.93;4.97;;;;;;;5.42;100.00;100523.25;5056040;28;20528;-71
2022/09/30 06:21:14;;;;;;;11.73;5.17;;;;;;;5.55;100.00;100520.03;5055987;28;20443;-70
2022/09/30 06:23:42;;;;;;;10.80;4.90;;;;;;;5.57;100.00;100528.63;5055977;28;20465;-70
2022/09/30 06:26:12;;;;;;;9.20;4.03;;;;;;;5.66;100.00;100526.19;5054801;28;20823;-71
2022/09/30 06:28:38;;;;;;;9.10;5.00;;;;;;;5.80;100.00;100532.66;5055397;28;21018;-71
2022/09/30 06:31:05;;;;;;;14.60;5.20;;;;;;;5.94;100.00;100532.94;5055882;28;20478;-71
2022/09/30 06:33:32;;;;;;;11.60;4.87;;;;;;;6.09;100.00;100546.34;5055779;28;20442;-70
2022/09/30 06:36:03;;;;;;;8.83;4.87;;;;;;;6.23;100.00;100541.19;5055741;28;20864;-70
2022/09/30 06:38:29;;;;;;;11.13;5.73;;;;;;;6.42;100.00;100539.56;5055354;28;21009;-71
2022/09/30 06:40:58;;;;;;;9.50;4.87;;;;;;;6.54;100.00;100534.63;5054899;28;20434;-71
2022/09/30 06:43:26;;;;;;;10.77;4.87;;;;;;;6.68;100.00;100548.31;5055256;28;20442;-70
2022/09/30 06:45:52;;;;;;;12.40;5.47;;;;;;;6.85;100.00;100561.44;5055279;28;20935;-71
2022/09/30 06:48:19;;;;;;;10.23;4.50;;;;;;;6.94;100.00;100557.06;5055472;28;20517;-72
2022/09/30 06:50:45;;;;;;;13.60;6.00;;;;;;;7.10;100.00;100557.81;5055425;28;20498;-71
2022/09/30 06:53:13;;;;;;;10.13;5.83;;;;;;;7.22;100.00;100570.94;5055177;28;20443;-71
2022/09/30 06:55:39;;;;;;;13.20;4.70;;;;;;;7.32;100.00;100571.66;5055131;28;20951;-72
2022/09/30 06:58:10;;;;;;;11.80;5.87;;;;;;;7.46;100.00;100565.66;5054886;28;20469;-71
2022/09/30 07:00:38;;;;;;;9.77;4.70;;;;;;;7.57;100.00;100561.81;5055540;28;20438;-71
2022/09/30 07:03:08;;;;;;;11.93;5.07;;;;;;;7.75;100.00;100563.00;5055244;28;20438;-71
2022/09/30 07:05:35;;;;;;;9.77;4.90;;;;;;;7.95;100.00;100559.31;5055144;28;20431;-73
2022/09/30 07:08:01;;;;;;;11.80;5.50;;;;;;;8.16;100.00;100563.44;5055061;28;20519;-71
2022/09/30 07:10:28;;;;;;;11.70;4.60;;;;;;;8.35;100.00;100564.31;5055210;28;20455;-72
2022/09/30 07:12:54;;;;;;;9.93;5.53;;;;;;;8.53;100.00;100562.78;5055114;28;20442;-71
2022/09/30 07:15:22;;;;;;;21.60;5.83;;;;;;;8.76;100.00;100581.97;5055057;28;20442;-71
2022/09/30 07:17:51;;;;;;;15.90;6.63;;;;;;;8.89;100.00;100575.06;5054915;28;20516;-72
2022/09/30 07:20:18;;;;;;;13.00;5.77;;;;;;;9.01;100.00;100578.94;5054892;28;20453;-71
2022/09/30 07:22:45;;;;;;;12.57;6.50;;;;;;;9.15;100.00;100575.53;5054896;28;20810;-71
2022/09/30 07:25:13;;;;;;;13.63;6.40;;;;;;;9.33;100.00;100580.13;5054653;28;20823;-76
2022/09/30 07:27:39;;;;;;;15.90;6.53;;;;;;;9.52;100.00;100586.34;5054521;28;20536;-75
2022/09/30 07:30:07;;;;;;;13.10;6.47;;;;;;;9.71;100.00;100591.72;5054846;28;20591;-75
2022/09/30 07:32:33;;;;;;;10.87;6.23;;;;;;;9.88;100.00;100593.09;5054312;28;21064;-72
2022/09/30 07:35:01;;;;;;;12.50;6.60;;;;;;;9.96;100.00;100600.50;5054460;28;20438;-72
2022/09/30 07:37:29;;;;;;;11.20;6.07;;;;;;;10.03;100.00;100598.22;5054309;28;20462;-72
2022/09/30 07:39:55;;;;;;;14.50;6.73;;;;;;;10.07;100.00;100594.63;5054340;28;20450;-72
2022/09/30 07:42:21;;;;;;;12.43;6.50;;;;;;;10.11;100.00;100598.34;5054608;28;20446;-71
2022/09/30 07:44:50;;;;;;;12.70;6.80;;;;;;;10.18;100.00;100606.09;5054560;28;20445;-72
2022/09/30 07:47:17;;;;;;;17.63;8.20;;;;;;;10.21;98.40;100605.47;5054534;28;20477;-70
2022/09/30 07:49:44;;;;;;;19.77;6.13;;;;;;;10.29;98.80;100604.84;5054564;28;20454;-69
2022/09/30 07:52:12;;;;;;;14.93;6.53;;;;;;;10.37;99.01;100603.34;5054266;28;20546;-72
2022/09/30 07:54:40;;;;;;;10.03;5.40;;;;;;;10.43;99.28;100601.34;5053840;28;20939;-71
2022/09/30 07:57:07;;;;;;;13.50;6.43;;;;;;;10.51;99.35;100604.16;5054193;28;20528;-72
2022/09/30 07:59:36;;;;;;;9.63;5.43;;;;;;;10.58;99.65;100598.31;5054214;28;20470;-71
2022/09/30 08:02:03;;;;;;;9.90;5.20;;;;;;;10.67;99.65;100604.69;5054168;28;20450;-72
2022/09/30 08:04:30;;;;;;;10.60;5.10;;;;;;;10.79;100.00;100602.25;5054155;28;20456;-71
2022/09/30 08:06:59;;;;;;;11.43;5.77;;;;;;;10.85;99.80;100606.47;5054077;28;20470;-72
2022/09/30 08:09:28;;;;;;;14.03;5.20;;;;;;;10.94;99.53;100603.06;5053964;28;20437;-73
2022/09/30 08:11:55;;;;;;;12.20;5.27;;;;;;;10.97;99.58;100610.56;5053605;28;20486;-73
2022/09/30 08:14:24;;;;;;;13.67;6.13;;;;;;;11.04;99.66;100610.97;5053986;28;20447;-73
2022/09/30 08:16:51;;;;;;;13.17;6.53;;;;;;;11.15;99.54;100616.97;5053861;28;20449;-72
2022/09/30 08:19:20;;;;;;;12.83;5.90;;;;;;;11.32;97.78;100619.84;5053839;28;20451;-69
2022/09/30 08:21:47;;;;;;;10.20;6.13;;;;;;;11.43;97.28;100623.94;5053786;28;20439;-72
2022/09/30 08:24:14;;;;;;;12.17;5.83;;;;;;;11.52;96.92;100626.75;5053754;28;20426;-72
2022/09/30 08:26:42;;;;;;;17.33;7.57;;;;;;;11.65;96.06;100627.81;5053379;28;20476;-71
2022/09/30 08:29:12;;;;;;;12.17;6.73;;;;;;;11.76;95.58;100627.25;5053798;28;20422;-72
2022/09/30 08:31:39;;;;;;;10.77;5.50;;;;;;;11.89;94.81;100628.31;5053541;28;20496;-71
2022/09/30 08:34:05;;;;;;;11.17;5.57;;;;;;;12.03;94.04;100630.97;5053713;28;20441;-70
2022/09/30 08:36:32;;;;;;;14.53;6.23;;;;;;;12.15;93.60;100630.41;5053445;28;20449;-70
2022/09/30 08:38:58;;;;;;;15.00;5.73;;;;;;;12.32;92.90;100634.03;5053572;28;20442;-70
2022/09/30 08:41:45;;;;;;;11.97;6.20;;;;;;;12.49;90.21;100638.75;5053550;28;20438;-74
2022/09/30 08:44:31;;;;;;;10.00;5.17;;;;;;;12.55;89.54;100642.13;5053372;28;20468;-71
2022/09/30 08:47:08;;;;;;;21.97;5.50;;;;;;;12.67;89.38;100644.28;5053495;28;20528;-69
2022/09/30 08:49:46;;;;;;;10.43;5.20;;;;;;;12.68;89.53;100641.25;5052510;28;20438;-70
2022/09/30 08:52:18;;;;;;;10.77;5.47;;;;;;;12.77;88.75;100649.44;5053238;28;20519;-69
2022/09/30 08:54:48;;;;;;;12.57;5.90;;;;;;;12.89;88.10;100660.50;5053368;28;20430;-69
2022/09/30 08:57:14;;;;;;;8.80;4.87;;;;;;;12.92;87.73;100659.88;5053404;28;20457;-69
2022/09/30 08:59:46;;;;;;;9.40;5.10;;;;;;;13.05;87.72;100652.72;5053201;28;20438;-69
2022/09/30 09:02:18;;;;;;;11.00;5.20;;;;;;;13.14;86.21;100664.41;5053270;28;20438;-70
2022/09/30 09:04:46;;;;;;;10.07;4.97;;;;;;;13.27;85.67;100663.50;5053272;28;20457;-69
2022/09/30 09:07:25;;;;;;;10.50;5.20;;;;;;;13.37;85.44;100660.50;5053213;28;20875;-69
2022/09/30 09:10:07;;;;;;;9.30;4.10;;;;;;;13.45;85.58;100658.09;5053309;28;20900;-70
2022/09/30 09:12:41;;;;;;;13.00;5.47;;;;;;;13.59;84.23;100659.56;5053130;28;20552;-70
2022/09/30 09:15:32;;;;;;;11.10;5.60;;;;;;;13.67;82.27;100657.97;5053265;28;20430;-69
2022/09/30 09:18:39;;;;;;;10.53;5.07;;;;;;;13.73;83.37;100658.63;5053068;28;20474;-69
2022/09/30 09:21:20;;;;;;;9.77;4.33;;;;;;;13.76;83.42;100650.59;5052739;28;20904;-70
2022/09/30 09:23:47;;;;;;;11.57;5.57;;;;;;;13.79;83.45;100660.84;5053457;28;20422;-72
2022/09/30 09:26:15;;;;;;;10.23;4.23;;;;;;;13.80;83.90;100658.91;5052749;28;20927;-70
2022/09/30 09:28:48;;;;;;;8.70;4.23;;;;;;;13.84;83.68;100657.97;5052504;28;20485;-71
2022/09/30 09:31:19;;;;;;;11.10;5.37;;;;;;;13.97;80.96;100649.94;5052970;28;20480;-71
2022/09/30 09:33:46;;;;;;;8.60;4.07;;;;;;;14.12;79.05;100654.88;5053051;28;20430;-70
2022/09/30 09:36:30;;;;;;;7.63;3.97;;;;;;;14.29;78.68;100663.03;5053107;28;20520;-69
2022/09/30 09:39:07;;;;;;;7.30;3.90;;;;;;;14.42;77.82;100666.69;5052823;28;20466;-70
2022/09/30 09:41:43;;;;;;;8.17;4.03;;;;;;;14.53;76.50;100656.28;5052918;28;20430;-70
2022/09/30 09:44:18;;;;;;;7.63;3.10;;;;;;;14.53;76.24;100653.56;5052906;28;20422;-70
2022/09/30 09:46:51;;;;;;;6.20;3.00;;;;;;;14.57;76.88;100659.97;5052735;28;20449;-69
2022/09/30 09:49:37;;;;;;;7.40;4.03;;;;;;;14.65;76.56;100656.38;5052907;28;20773;-71
2022/09/30 09:52:45;;;;;;;7.17;3.53;;;;;;;14.75;73.77;100656.03;5052391;28;20914;-70
2022/09/30 09:55:13;;;;;;;8.27;3.70;;;;;;;14.85;74.33;100652.13;5052751;28;20502;-70
2022/09/30 09:57:40;;;;;;;7.37;3.40;;;;;;;14.96;73.34;100658.00;5052316;28;20533;-70
2022/09/30 10:03:02;;;;;;;8.40;4.33;;;;;;;15.19;74.26;100647.66;5056554;28;20453;-69
2022/09/30 10:05:31;;;;;;;9.60;4.10;;;;;;;15.21;73.67;100646.16;5056351;28;20434;-70
2022/09/30 10:08:18;;;;;;;7.33;3.43;;;;;;;15.23;72.59;100652.09;5056343;28;20556;-70
2022/09/30 10:10:50;;;;;;;8.77;3.23;;;;;;;15.36;71.61;100653.78;5051279;28;20462;-69
2022/09/30 10:13:19;;;;;;;7.70;3.70;;;;;;;15.48;71.59;100652.25;5055941;28;21040;-68
2022/09/30 10:15:46;;;;;;;7.80;2.80;;;;;;;15.47;69.47;100650.66;5055844;28;20442;-70
2022/09/30 10:18:23;;;;;;;5.37;2.60;;;;;;;15.41;72.21;100649.25;5056139;28;20466;-70
2022/09/30 10:20:52;;;;;;;5.30;2.40;;;;;;;15.51;70.25;100644.19;5055900;28;20910;-69
2022/09/30 10:23:21;;;;;;;8.20;2.70;;;;;;;15.60;68.66;100649.59;5056025;28;20441;-69
2022/09/30 10:26:16;;;;;;;5.20;2.80;;;;;;;15.73;68.67;100653.22;5055954;28;20458;-70
2022/09/30 10:28:45;;;;;;;6.40;3.20;;;;;;;15.73;70.49;100643.09;5055528;28;20477;-70
2022/09/30 10:31:17;;;;;;;4.80;2.10;;;;;;;15.78;67.67;100642.09;5055674;28;20808;-70
2022/09/30 10:33:48;;;;;;;4.90;2.37;;;;;;;15.82;66.01;100638.34;5055788;28;20837;-70
2022/09/30 10:36:17;;;;;;;9.10;2.33;;;;;;;15.80;67.99;100640.59;5055855;28;20422;-70
2022/09/30 10:38:57;;;;;;;7.37;2.37;;;;;;;15.92;67.64;100641.81;5055648;28;20462;-69
2022/09/30 10:41:26;;;;;;;8.00;2.93;;;;;;;15.99;66.98;100637.41;5055727;28;20777;-70
2022/09/30 10:43:55;;;;;;;4.97;2.00;;;;;;;16.05;64.04;100636.03;5055651;28;20438;-70
2022/09/30 10:46:23;;;;;;;5.53;2.20;;;;;;;16.25;62.89;100637.16;5055793;28;20504;-70
2022/09/30 10:48:53;;;;;;;6.63;1.40;;;;;;;16.37;65.20;100628.94;5055531;28;20466;-70
2022/09/30 10:51:24;;;;;;;5.10;1.90;;;;;;;16.53;61.90;100620.09;5055963;28;20518;-72
2022/09/30 10:53:51;;;;;;;6.17;2.00;;;;;;;16.69;59.37;100625.69;5055338;28;21025;-74
2022/09/30 10:56:36;;;;;;;5.97;2.10;;;;;;;16.81;58.60;100629.25;5055573;28;20438;-70
2022/09/30 10:59:04;;;;;;;5.73;2.73;;;;;;;16.85;58.20;100627.44;5055501;28;20482;-70
2022/09/30 11:01:36;;;;;;;4.40;1.77;;;;;;;16.97;59.77;100620.38;5055289;28;20443;-70
2022/09/30 11:04:10;;;;;;;6.60;1.83;;;;;;;17.04;60.96;100632.31;5055285;28;20791;-70
2022/09/30 11:06:39;;;;;;;8.50;1.80;;;;;;;17.35;56.22;100631.72;5055174;28;20522;-69
2022/09/30 11:09:11;;;;;;;5.00;2.13;;;;;;;18.02;55.42;100629.34;5055244;28;20461;-69
2022/09/30 11:11:39;;;;;;;3.93;1.70;;;;;;;18.95;54.02;100633.66;5054584;28;20427;-70
2022/09/30 11:14:21;;;;;;;5.43;1.73;;;;;;;20.28;52.50;100624.28;5055108;28;20828;-69
2022/09/30 11:16:56;;;;;;;3.30;1.10;;;;;;;21.19;48.37;100637.19;5055004;28;20422;-70
2022/09/30 11:19:30;;;;;;;5.00;1.30;;;;;;;22.19;46.04;100626.66;5054674;28;20812;-70
2022/09/30 11:22:03;;;;;;;5.10;1.70;;;;;;;22.89;44.03;100632.03;5055068;28;20427;-72
2022/09/30 11:24:38;;;;;;;4.03;1.50;;;;;;;23.56;42.53;100636.34;5055079;28;20435;-71
2022/09/30 11:27:12;;;;;;;4.73;1.73;;;;;;;23.93;41.40;100629.78;5054604;28;20481;-71
2022/09/30 11:29:56;;;;;;;5.50;1.63;;;;;;;23.79;40.65;100630.53;5054805;28;20438;-71
2022/09/30 11:32:33;;;;;;;4.70;1.13;;;;;;;24.30;40.22;100629.47;5054819;28;20886;-70
2022/09/30 11:35:09;;;;;;;5.40;1.60;;;;;;;24.13;40.18;100630.25;5054460;28;20896;-70
2022/09/30 11:37:52;;;;;;;3.73;1.13;;;;;;;24.28;41.36;100640.16;5054642;28;20465;-70
2022/09/30 11:40:29;;;;;;;3.97;1.00;;;;;;;24.00;40.58;100637.34;5054705;28;20431;-70
2022/09/30 11:43:06;;;;;;;3.50;1.33;;;;;;;24.61;41.94;100632.69;5054585;28;20430;-71
2022/09/30 11:45:45;;;;;;;3.60;1.07;;;;;;;25.33;38.43;100641.75;5054591;28;20431;-73